Time;durP1;ratioP1;P1;durP2;ratioP2;P2;SDS_P1;SDS_P2;PMS_P1;PMS_P2;Temp;Humidity;BMP_temperature;BMP_pressure;BME280_temperature;BME280_humidity;BME280_pressure;Samples;Min_cycle;Max_cycle;Signal;HPM_P1;HPM_P2
2023/09/01 00:01:11;;;;;;;10.43;4.47;;;25.40;32.90;;;;;;20910627;28;20045;-58
2023/09/01 00:11:11;;;;;;;7.70;4.25;;;24.90;33.30;;;;;;20911277;28;20049;-57
2023/09/01 00:21:12;;;;;;;9.40;3.88;;;24.40;33.40;;;;;;20908847;28;20088;-58
2023/09/01 00:31:16;;;;;;;8.43;3.00;;;24.20;33.00;;;;;;20909554;28;20057;-56
2023/09/01 00:41:17;;;;;;;7.82;3.25;;;24.10;32.60;;;;;;20920081;28;20045;-57
2023/09/01 00:51:18;;;;;;;9.20;4.18;;;23.90;32.50;;;;;;20924533;28;20060;-57
2023/09/01 01:01:19;;;;;;;5.82;3.45;;;23.70;33.00;;;;;;20923615;28;20403;-58
2023/09/01 01:11:38;;;;;;;6.28;2.22;;;23.50;33.00;;;;;;20922895;28;20067;-56
2023/09/01 01:21:41;;;;;;;8.70;3.22;;;23.50;32.80;;;;;;20921765;28;20053;-57
2023/09/01 01:31:41;;;;;;;5.47;3.53;;;23.40;32.90;;;;;;20919656;28;20059;-57
2023/09/01 01:41:54;;;;;;;5.00;2.90;;;23.30;33.10;;;;;;20920685;28;20494;-58
2023/09/01 01:51:54;;;;;;;9.23;3.53;;;23.20;33.10;;;;;;20919024;28;20071;-59
2023/09/01 02:01:55;;;;;;;7.03;2.95;;;23.10;33.50;;;;;;20919595;28;20088;-58
2023/09/01 02:11:56;;;;;;;4.45;2.60;;;23.00;33.80;;;;;;20918747;28;20398;-56
2023/09/01 02:21:57;;;;;;;8.65;2.70;;;22.70;33.90;;;;;;20917050;28;20125;-57
2023/09/01 02:31:57;;;;;;;6.35;2.78;;;22.40;34.70;;;;;;20916098;28;20059;-58
2023/09/01 02:42:01;;;;;;;6.47;2.65;;;22.50;34.70;;;;;;20915198;28;20049;-59
2023/09/01 02:52:01;;;;;;;5.80;3.22;;;22.20;35.50;;;;;;20915468;28;20045;-56
2023/09/01 03:02:02;;;;;;;7.65;3.28;;;22.20;35.90;;;;;;20914749;28;20052;-56
2023/09/01 03:12:04;;;;;;;8.18;4.25;;;22.10;36.10;;;;;;20914856;28;20045;-58
2023/09/01 03:22:05;;;;;;;7.72;2.92;;;22.10;36.10;;;;;;20914194;28;20371;-57
2023/09/01 03:32:05;;;;;;;4.30;2.83;;;22.10;36.30;;;;;;20912795;28;20110;-57
2023/09/01 03:42:06;;;;;;;7.13;3.25;;;22.00;36.40;;;;;;20913266;28;20041;-56
2023/09/01 03:52:07;;;;;;;4.70;2.42;;;21.80;36.50;;;;;;20912801;28;20072;-57
2023/09/01 04:02:08;;;;;;;13.75;10.65;;;21.80;36.40;;;;;;20912149;28;20125;-59
2023/09/01 04:12:08;;;;;;;8.75;3.88;;;21.60;36.50;;;;;;20913811;28;20082;-57
2023/09/01 04:22:09;;;;;;;4.85;2.70;;;21.40;36.80;;;;;;20926254;28;20044;-57
2023/09/01 04:32:10;;;;;;;5.38;3.10;;;21.30;37.30;;;;;;20926918;28;20083;-57
2023/09/01 04:42:11;;;;;;;6.68;3.00;;;21.20;38.10;;;;;;20926454;28;20044;-57
2023/09/01 04:52:11;;;;;;;4.78;2.90;;;21.20;38.50;;;;;;20925065;28;20087;-58
2023/09/01 05:02:12;;;;;;;8.68;3.50;;;21.00;38.00;;;;;;20923490;28;20041;-57
2023/09/01 05:12:13;;;;;;;6.88;3.33;;;21.00;37.90;;;;;;20922892;28;20175;-58
2023/09/01 05:22:14;;;;;;;7.05;3.40;;;20.90;38.20;;;;;;20921303;28;20055;-57
2023/09/01 05:32:15;;;;;;;5.85;3.72;;;20.80;38.20;;;;;;20920217;28;20131;-57
2023/09/01 05:42:16;;;;;;;5.97;3.15;;;20.70;38.30;;;;;;20920569;28;20048;-57
2023/09/01 05:52:17;;;;;;;14.20;4.07;;;20.60;38.70;;;;;;20919758;28;20053;-57
2023/09/01 06:02:18;;;;;;;11.43;4.65;;;20.30;38.80;;;;;;20918001;28;20080;-58
2023/09/01 06:12:18;;;;;;;7.75;3.83;;;20.40;39.10;;;;;;20917233;28;20509;-56
2023/09/01 06:22:20;;;;;;;6.25;3.08;;;20.30;39.50;;;;;;20916775;28;20428;-57
2023/09/01 06:32:21;;;;;;;9.55;3.83;;;20.40;39.20;;;;;;20915246;28;20049;-56
2023/09/01 06:42:22;;;;;;;7.88;4.13;;;20.70;38.70;;;;;;20915374;28;20053;-57
2023/09/01 06:52:22;;;;;;;7.72;3.10;;;20.80;38.70;;;;;;20913604;28;20136;-58
2023/09/01 07:02:23;;;;;;;11.70;3.40;;;21.00;38.50;;;;;;20914293;28;20041;-57
2023/09/01 07:12:24;;;;;;;8.18;3.30;;;21.20;38.80;;;;;;20913131;28;20076;-57
2023/09/01 07:22:24;;;;;;;7.90;3.20;;;21.40;38.50;;;;;;20913103;28;20068;-57
2023/09/01 07:32:25;;;;;;;9.77;4.38;;;21.70;38.90;;;;;;20911921;28;20180;-56
2023/09/01 07:42:26;;;;;;;14.18;4.05;;;22.10;39.60;;;;;;20912309;28;20068;-59
2023/09/01 07:52:28;;;;;;;13.85;4.70;;;22.60;39.40;;;;;;20926597;28;20049;-57
2023/09/01 08:02:29;;;;;;;10.00;5.10;;;22.90;38.90;;;;;;20927005;28;20092;-58
2023/09/01 08:12:29;;;;;;;7.15;3.33;;;23.30;39.20;;;;;;20925854;28;20053;-57
2023/09/01 08:22:31;;;;;;;8.80;3.92;;;23.80;42.90;;;;;;20925876;28;20041;-58
2023/09/01 08:32:33;;;;;;;11.77;3.37;;;24.10;41.90;;;;;;20923965;28;20052;-58
2023/09/01 08:42:35;;;;;;;12.47;2.90;;;24.20;42.20;;;;;;20924770;28;20041;-58
2023/09/01 08:52:38;;;;;;;15.10;3.70;;;24.60;42.00;;;;;;20923647;28;20129;-58
2023/09/01 09:02:43;;;;;;;14.13;3.63;;;24.90;42.10;;;;;;20922694;28;20079;-58
2023/09/01 09:12:44;;;;;;;17.77;3.47;;;25.20;40.90;;;;;;20922158;28;20063;-57
2023/09/01 09:22:56;;;;;;;12.25;3.78;;;25.40;39.90;;;;;;20921786;28;20580;-57
2023/09/01 09:33:04;;;;;;;12.83;3.50;;;25.60;39.60;;;;;;20919443;28;20157;-57
2023/09/01 09:43:08;;;;;;;12.35;3.20;;;25.80;38.80;;;;;;20920146;28;20561;-57
2023/09/01 09:53:14;;;;;;;12.05;4.43;;;26.00;37.80;;;;;;20917920;28;20049;-58
2023/09/01 10:03:15;;;;;;;12.18;3.58;;;26.30;38.20;;;;;;20918916;28;20102;-57
2023/09/01 10:13:17;;;;;;;8.93;2.90;;;26.60;37.00;;;;;;20916808;28;20041;-58
2023/09/01 10:23:19;;;;;;;11.13;4.25;;;26.70;36.50;;;;;;20917462;28;20044;-58
2023/09/01 10:33:24;;;;;;;18.77;3.80;;;26.90;35.70;;;;;;20919324;28;20082;-58
2023/09/01 10:43:34;;;;;;;14.63;4.25;;;27.20;34.90;;;;;;21067755;27;20386;-58
2023/09/01 10:53:35;;;;;;;13.30;4.07;;;27.30;35.00;;;;;;21067917;28;20417;-58
2023/09/01 11:03:38;;;;;;;12.10;3.60;;;27.50;34.50;;;;;;21066508;28;20056;-58
2023/09/01 11:13:38;;;;;;;9.68;4.18;;;27.80;33.60;;;;;;21066309;28;20178;-57
2023/09/01 11:23:39;;;;;;;9.50;3.93;;;28.10;32.50;;;;;;21064863;28;20076;-57
2023/09/01 11:33:42;;;;;;;6.53;3.53;;;28.30;32.10;;;;;;21063895;28;20044;-57
2023/09/01 11:43:43;;;;;;;8.70;4.35;;;28.60;31.50;;;;;;21063756;28;20044;-57
2023/09/01 11:53:51;;;;;;;;;;;28.90;31.00;;;;;;21014092;28;20086;-57
2023/09/01 12:03:53;;;;;;;7.07;3.90;;;29.10;30.10;;;;;;21006975;28;19993;-57
2023/09/01 12:13:54;;;;;;;6.97;4.43;;;29.30;29.70;;;;;;21004271;28;20044;-57
2023/09/01 12:24:05;;;;;;;6.80;3.28;;;29.60;29.30;;;;;;21004433;28;20531;-59
2023/09/01 12:34:05;;;;;;;;;;;29.90;28.80;;;;;;21003917;28;20060;-58
2023/09/01 12:44:06;;;;;;;6.38;3.15;;;30.00;28.60;;;;;;21002196;28;20102;-58
2023/09/01 12:54:07;;;;;;;4.00;2.65;;;30.00;28.60;;;;;;21002228;28;20040;-59
2023/09/01 13:04:07;;;;;;;3.80;2.58;;;30.30;28.50;;;;;;20999459;28;20076;-57
2023/09/01 13:14:08;;;;;;;5.45;2.40;;;30.70;28.30;;;;;;21000324;28;20044;-56
2023/09/01 13:24:09;;;;;;;6.65;2.45;;;30.60;28.30;;;;;;20998751;28;20048;-57
2023/09/01 13:34:10;;;;;;;5.55;2.70;;;31.10;27.70;;;;;;20998206;28;20053;-57
2023/09/01 13:44:10;;;;;;;6.35;2.97;;;31.10;27.60;;;;;;20997517;28;20055;-59
2023/09/01 13:54:11;;;;;;;6.30;2.80;;;31.40;27.40;;;;;;20996649;28;20041;-59
2023/09/01 14:04:12;;;;;;;6.07;3.10;;;31.40;27.30;;;;;;20996941;28;20448;-57
2023/09/01 14:14:12;;;;;;;5.75;2.67;;;31.20;27.40;;;;;;20995650;28;20366;-58
2023/09/01 14:24:13;;;;;;;6.82;3.08;;;31.40;27.50;;;;;;20995608;28;20127;-58
2023/09/01 14:34:14;;;;;;;8.85;3.22;;;31.70;27.00;;;;;;20995317;28;20063;-59
2023/09/01 14:44:15;;;;;;;7.28;2.60;;;31.60;26.70;;;;;;20995396;28;20118;-58
2023/09/01 14:54:16;;;;;;;25.02;5.07;;;31.30;26.80;;;;;;20994979;28;20060;-57
2023/09/01 15:04:16;;;;;;;6.65;3.90;;;31.30;26.80;;;;;;20994637;28;20389;-59
2023/09/01 15:14:17;;;;;;;6.40;2.95;;;31.40;26.90;;;;;;20992827;28;20084;-57
2023/09/01 15:24:18;;;;;;;7.68;4.47;;;31.20;27.00;;;;;;20999981;28;20478;-57
2023/09/01 15:34:19;;;;;;;7.05;3.58;;;31.30;27.20;;;;;;21007310;28;20095;-58
2023/09/01 15:44:21;;;;;;;5.22;3.13;;;31.60;27.00;;;;;;21007758;28;20087;-57
2023/09/01 15:54:21;;;;;;;5.15;3.30;;;31.60;26.70;;;;;;21005674;28;20053;-58
2023/09/01 16:04:22;;;;;;;5.65;3.95;;;31.30;27.30;;;;;;21006579;28;20091;-58
2023/09/01 16:14:23;;;;;;;6.07;3.55;;;31.40;27.10;;;;;;21005505;28;20048;-58
2023/09/01 16:24:24;;;;;;;5.13;4.53;;;31.30;27.10;;;;;;21003694;28;20048;-60
2023/09/01 16:34:26;;;;;;;5.20;3.33;;;31.10;27.70;;;;;;21003725;28;20110;-57
2023/09/01 16:44:27;;;;;;;14.73;11.55;;;31.30;27.40;;;;;;21002000;28;20095;-58
2023/09/01 16:54:29;;;;;;;6.80;3.20;;;31.20;27.70;;;;;;21002366;28;20087;-58
2023/09/01 17:04:31;;;;;;;5.32;2.65;;;31.10;27.90;;;;;;21001960;28;20045;-58
2023/09/01 17:14:32;;;;;;;7.85;3.17;;;30.70;28.10;;;;;;21000973;28;20048;-57
2023/09/01 17:24:32;;;;;;;8.70;3.40;;;30.60;28.40;;;;;;20998730;28;20051;-58
2023/09/01 17:34:33;;;;;;;6.90;3.70;;;30.60;28.30;;;;;;20999348;28;20057;-58
2023/09/01 17:44:34;;;;;;;7.78;3.25;;;30.60;28.40;;;;;;20997008;28;20053;-59
2023/09/01 17:54:35;;;;;;;7.30;3.25;;;30.60;28.70;;;;;;20997874;28;20375;-59
2023/09/01 18:04:36;;;;;;;5.75;3.33;;;30.20;29.00;;;;;;20997600;28;20095;-58
2023/09/01 18:14:38;;;;;;;6.78;3.47;;;30.00;29.30;;;;;;20996773;28;20037;-59
2023/09/01 18:24:39;;;;;;;8.25;4.28;;;29.90;29.40;;;;;;20995017;28;20049;-61
2023/09/01 18:34:40;;;;;;;9.32;3.65;;;29.80;29.40;;;;;;20996120;28;20143;-59
2023/09/01 18:44:42;;;;;;;7.97;3.30;;;29.80;29.80;;;;;;20995763;28;20501;-58
2023/09/01 18:54:43;;;;;;;6.72;3.50;;;29.70;30.20;;;;;;20994575;28;20513;-59
2023/09/01 19:04:44;;;;;;;8.77;3.55;;;29.40;30.70;;;;;;21008664;28;20106;-58
2023/09/01 19:14:45;;;;;;;7.18;2.90;;;29.20;30.60;;;;;;21010182;28;20498;-58
2023/09/01 19:24:48;;;;;;;6.80;2.92;;;29.00;30.70;;;;;;21010117;28;20106;-58
2023/09/01 19:34:49;;;;;;;6.30;3.83;;;28.70;30.80;;;;;;21007932;28;20218;-59
2023/09/01 19:44:50;;;;;;;8.05;4.00;;;28.60;31.50;;;;;;21007153;28;20583;-59
2023/09/01 19:54:51;;;;;;;7.70;3.92;;;28.60;32.00;;;;;;21006710;28;20128;-59
2023/09/01 20:04:52;;;;;;;10.98;5.25;;;28.60;32.30;;;;;;21007374;28;20573;-58
2023/09/01 20:14:53;;;;;;;13.40;7.38;;;28.60;32.40;;;;;;21006268;28;20398;-59
2023/09/01 20:24:54;;;;;;;12.38;9.95;;;28.60;32.70;;;;;;21005532;28;20044;-59
2023/09/01 20:34:54;;;;;;;;;;;28.40;32.90;;;;;;21005134;28;20089;-59
2023/09/01 20:44:55;;;;;;;9.47;5.30;;;28.20;33.20;;;;;;21003064;28;20002;-59
2023/09/01 20:54:56;;;;;;;;;;;28.20;33.30;;;;;;21003916;28;20498;-59
2023/09/01 21:04:57;;;;;;;10.13;5.40;;;28.00;33.40;;;;;;21001653;28;19924;-57
2023/09/01 21:14:58;;;;;;;18.30;6.13;;;28.00;33.70;;;;;;21001816;28;20782;-58
2023/09/01 21:24:59;;;;;;;13.23;5.57;;;27.70;34.40;;;;;;20999815;28;20150;-58
2023/09/01 21:34:59;;;;;;;11.70;5.13;;;27.70;34.60;;;;;;20999872;28;20564;-58
2023/09/01 21:45:00;;;;;;;11.77;5.50;;;27.70;34.70;;;;;;20999382;28;20470;-59
2023/09/01 21:55:01;;;;;;;13.53;6.50;;;27.60;35.10;;;;;;20998821;28;20072;-57
2023/09/01 22:05:02;;;;;;;17.13;8.37;;;27.60;35.30;;;;;;20996492;28;20062;-59
2023/09/01 22:15:03;;;;;;;9.57;6.70;;;27.60;35.80;;;;;;20997324;28;20606;-58
2023/09/01 22:25:04;;;;;;;16.35;8.95;;;27.40;36.30;;;;;;20996786;28;20048;-59
2023/09/01 22:35:05;;;;;;;;;;;27.20;36.70;;;;;;20995934;28;20121;-60
2023/09/01 22:45:06;;;;;;;11.32;6.03;;;27.10;36.70;;;;;;20996452;28;19920;-60
2023/09/01 22:55:07;;;;;;;9.63;5.47;;;26.60;42.50;;;;;;20996069;28;20048;-59
2023/09/01 23:05:08;;;;;;;12.80;7.97;;;26.30;43.60;;;;;;20995509;28;20048;-60
2023/09/01 23:15:09;;;;;;;12.10;7.97;;;26.40;43.10;;;;;;20995037;28;20300;-57
2023/09/01 23:25:10;;;;;;;15.10;7.33;;;26.40;43.00;;;;;;20994686;28;20485;-59
2023/09/01 23:35:11;;;;;;;12.73;5.03;;;26.40;43.10;;;;;;20992790;28;20459;-58
2023/09/01 23:45:11;;;;;;;9.77;5.23;;;26.30;39.30;;;;;;20998454;28;20053;-59
2023/09/01 23:55:13;;;;;;;8.80;4.80;;;26.20;39.20;;;;;;21007208;28;20084;-58
